Time;durP1;ratioP1;P1;durP2;ratioP2;P2;SDS_P1;SDS_P2;PMS_P1;PMS_P2;Temp;Humidity;BMP_temperature;BMP_pressure;BME280_temperature;BME280_humidity;BME280_pressure;Samples;Min_cycle;Max_cycle;Signal;HPM_P1;HPM_P2
2022/05/13 00:01:34;;;;;;;1.60;1.50;;;15.30;98.90;;;;;;5046743;28;20262;-73
2022/05/13 00:04:01;;;;;;;1.37;1.27;;;15.30;98.90;;;;;;5037918;28;20230;-73
2022/05/13 00:06:29;;;;;;;1.50;1.50;;;15.40;99.00;;;;;;5049474;28;20306;-77
2022/05/13 00:08:56;;;;;;;1.83;1.67;;;15.30;98.90;;;;;;5049503;28;20302;-77
2022/05/13 00:11:23;;;;;;;1.80;1.40;;;15.30;99.10;;;;;;5040459;28;20208;-77
2022/05/13 00:13:50;;;;;;;2.33;1.40;;;15.30;99.10;;;;;;5046232;28;20254;-84
2022/05/13 00:16:17;;;;;;;2.37;1.63;;;15.30;99.10;;;;;;5049667;28;20262;-84
2022/05/13 00:18:43;;;;;;;1.50;1.40;;;15.40;99.00;;;;;;5049598;28;20647;-84
2022/05/13 00:21:10;;;;;;;2.83;1.53;;;15.20;99.00;;;;;;5049760;28;20208;-84
2022/05/13 00:23:37;;;;;;;1.53;1.43;;;15.10;99.20;;;;;;5048467;28;20686;-84
2022/05/13 00:26:08;;;;;;;1.73;1.63;;;14.90;99.50;;;;;;5049482;28;20215;-84
2022/05/13 00:28:34;;;;;;;2.77;1.77;;;15.00;99.70;;;;;;5049346;28;20200;-75
2022/05/13 00:31:04;;;;;;;1.97;1.57;;;15.20;99.70;;;;;;5048841;28;20215;-75
2022/05/13 00:33:32;;;;;;;2.03;1.50;;;15.40;99.80;;;;;;5034515;28;20192;-75
2022/05/13 00:35:58;;;;;;;1.80;1.67;;;15.50;99.90;;;;;;5028696;28;20236;-74
2022/05/13 00:38:25;;;;;;;2.40;1.70;;;15.60;99.70;;;;;;5029351;28;20209;-74
2022/05/13 00:40:52;;;;;;;1.67;1.57;;;15.70;99.80;;;;;;5036950;28;20208;-74
2022/05/13 00:43:54;;;;;;;3.33;1.90;;;15.70;99.80;;;;;;5030237;28;20935;-75
2022/05/13 00:46:24;;;;;;;2.70;1.80;;;15.70;99.80;;;;;;5043289;28;20873;-75
2022/05/13 00:48:51;;;;;;;4.23;1.67;;;15.70;99.80;;;;;;5044031;28;20205;-74
2022/05/13 00:51:21;;;;;;;6.43;1.80;;;15.70;99.90;;;;;;5028223;28;20667;-74
2022/05/13 00:53:48;;;;;;;1.83;1.53;;;15.70;99.80;;;;;;5028334;28;20205;-74
2022/05/13 00:56:15;;;;;;;1.60;1.50;;;15.70;99.60;;;;;;5028575;28;20764;-74
2022/05/13 00:58:47;;;;;;;1.50;1.40;;;15.60;99.70;;;;;;5032273;28;20208;-74
2022/05/13 01:01:14;;;;;;;1.70;1.30;;;15.50;99.30;;;;;;5040244;28;20557;-74
2022/05/13 01:03:44;;;;;;;1.87;1.77;;;15.50;99.40;;;;;;5028896;28;20300;-78
2022/05/13 01:06:13;;;;;;;2.23;1.70;;;15.40;99.50;;;;;;5030351;28;20625;-78
2022/05/13 01:08:40;;;;;;;2.30;2.00;;;15.40;99.60;;;;;;5048373;28;20220;-77
2022/05/13 01:11:12;;;;;;;3.70;1.67;;;15.40;99.70;;;;;;5048213;28;20208;-77
2022/05/13 01:13:39;;;;;;;1.90;1.67;;;15.20;99.70;;;;;;5047912;28;20204;-77
2022/05/13 01:16:06;;;;;;;2.23;1.80;;;15.10;99.90;;;;;;5048250;28;20282;-77
2022/05/13 01:18:36;;;;;;;1.90;1.80;;;14.80;99.90;;;;;;5048073;28;20231;-77
2022/05/13 01:21:08;;;;;;;2.17;1.80;;;14.60;99.90;;;;;;5033680;28;20197;-77
2022/05/13 01:23:40;;;;;;;2.53;1.80;;;14.60;99.90;;;;;;5039581;28;20196;-77
2022/05/13 01:26:09;;;;;;;2.50;1.60;;;14.70;99.90;;;;;;5048078;28;20536;-77
2022/05/13 01:28:38;;;;;;;2.67;1.80;;;14.90;99.90;;;;;;5048491;28;20212;-77
2022/05/13 01:31:08;;;;;;;3.70;2.00;;;15.00;99.90;;;;;;5048190;28;20204;-77
2022/05/13 01:33:35;;;;;;;2.33;1.80;;;15.10;99.90;;;;;;5047613;28;20235;-77
2022/05/13 01:36:06;;;;;;;4.70;2.10;;;15.20;99.90;;;;;;5035221;28;20240;-77
2022/05/13 01:38:37;;;;;;;2.10;1.90;;;15.20;99.90;;;;;;5028221;28;20196;-77
2022/05/13 01:41:08;;;;;;;2.10;2.00;;;15.20;99.90;;;;;;5028142;28;20209;-77
2022/05/13 01:43:37;;;;;;;2.23;1.80;;;15.20;99.90;;;;;;5045771;28;20199;-77
2022/05/13 01:46:06;;;;;;;2.33;1.90;;;15.20;99.90;;;;;;5047929;28;20216;-76
2022/05/13 01:48:34;;;;;;;2.23;2.10;;;15.20;99.90;;;;;;5047760;28;20204;-76
2022/05/13 01:51:01;;;;;;;2.27;1.80;;;15.20;99.90;;;;;;5047698;28;20208;-76
2022/05/13 01:53:28;;;;;;;2.07;1.97;;;15.10;99.90;;;;;;5047078;28;20235;-76
2022/05/13 01:55:56;;;;;;;2.10;1.90;;;15.10;99.90;;;;;;5047304;28;20224;-75
2022/05/13 01:58:25;;;;;;;2.50;2.00;;;15.10;99.90;;;;;;5047609;28;20231;-73
2022/05/13 02:00:55;;;;;;;2.50;2.00;;;15.10;99.90;;;;;;5047331;28;20204;-73
2022/05/13 02:06:07;;;;;;;2.17;1.70;;;15.10;99.90;;;;;;5047371;28;20314;-77
2022/05/13 02:08:34;;;;;;;2.20;2.10;;;14.90;99.90;;;;;;5047634;28;20290;-77
2022/05/13 02:11:06;;;;;;;3.63;2.03;;;14.90;99.90;;;;;;5047578;28;20212;-77
2022/05/13 02:13:33;;;;;;;4.03;2.07;;;14.90;99.90;;;;;;5043025;28;20192;-77
2022/05/13 02:16:00;;;;;;;4.63;2.10;;;14.90;99.90;;;;;;5047532;28;20232;-75
2022/05/13 02:18:27;;;;;;;2.33;1.90;;;14.90;99.90;;;;;;5047387;28;20240;-74
2022/05/13 02:20:55;;;;;;;4.07;2.23;;;14.90;99.90;;;;;;5042198;28;20204;-74
2022/05/13 02:23:22;;;;;;;1.90;1.80;;;14.90;99.90;;;;;;5039931;28;20211;-74
2022/05/13 02:25:50;;;;;;;2.20;2.03;;;14.90;99.90;;;;;;5046937;28;20204;-74
2022/05/13 02:28:18;;;;;;;2.50;2.30;;;14.90;99.90;;;;;;5047408;28;20265;-75
2022/05/13 02:30:45;;;;;;;2.30;2.20;;;14.90;99.90;;;;;;5047163;28;20716;-74
2022/05/13 02:33:13;;;;;;;2.43;2.23;;;14.90;99.90;;;;;;5031828;28;20255;-74
2022/05/13 02:35:39;;;;;;;2.57;2.37;;;14.90;99.90;;;;;;5025629;28;20216;-75
2022/05/13 02:38:06;;;;;;;2.67;2.40;;;14.90;99.90;;;;;;5025387;28;20619;-74
2022/05/13 02:43:18;;;;;;;2.90;2.70;;;14.80;99.90;;;;;;5044287;28;20882;-74
2022/05/13 02:45:46;;;;;;;2.83;2.63;;;14.70;99.90;;;;;;5025081;28;20236;-74
2022/05/13 02:48:13;;;;;;;2.70;2.50;;;14.70;99.90;;;;;;5027401;28;20209;-72
2022/05/13 02:50:40;;;;;;;3.20;2.53;;;14.70;99.90;;;;;;5029039;28;20737;-72
2022/05/13 02:53:06;;;;;;;3.73;2.50;;;14.70;99.90;;;;;;5028621;28;20732;-72
2022/05/13 02:55:33;;;;;;;4.13;2.50;;;14.70;99.90;;;;;;5029641;28;20244;-74
2022/05/13 02:58:00;;;;;;;2.87;2.67;;;14.70;99.90;;;;;;5029074;28;20266;-74
2022/05/13 03:00:28;;;;;;;2.87;2.60;;;14.60;99.90;;;;;;5036049;28;20209;-74
2022/05/13 03:02:54;;;;;;;4.80;2.50;;;14.60;99.90;;;;;;5045840;28;20231;-76
2022/05/13 03:05:21;;;;;;;3.40;2.70;;;14.70;99.90;;;;;;5050742;28;20620;-73
2022/05/13 03:07:48;;;;;;;3.57;2.90;;;14.40;99.90;;;;;;5048350;28;20220;-73
2022/05/13 03:10:14;;;;;;;3.07;2.87;;;14.40;99.90;;;;;;5046092;28;20200;-74
2022/05/13 03:12:41;;;;;;;5.10;2.93;;;14.50;99.90;;;;;;5028925;28;20204;-74
2022/05/13 03:15:10;;;;;;;4.03;3.13;;;14.40;99.90;;;;;;5028574;28;20295;-74
2022/05/13 03:17:39;;;;;;;3.40;3.10;;;14.10;99.90;;;;;;5028745;28;20236;-74
2022/05/13 03:20:08;;;;;;;3.43;3.00;;;14.10;99.90;;;;;;5029092;28;20947;-74
2022/05/13 03:22:35;;;;;;;3.27;2.90;;;14.10;99.90;;;;;;5031688;28;20251;-74
2022/05/13 03:25:01;;;;;;;3.83;3.43;;;14.20;99.90;;;;;;5049478;28;20694;-74
2022/05/13 03:27:28;;;;;;;3.27;2.80;;;14.20;99.90;;;;;;5050335;28;20205;-74
2022/05/13 03:29:54;;;;;;;3.33;3.07;;;14.30;99.90;;;;;;5049947;28;20257;-74
2022/05/13 03:32:22;;;;;;;4.20;3.17;;;14.30;99.90;;;;;;5049813;28;20204;-74
2022/05/13 03:34:50;;;;;;;3.03;2.83;;;14.30;99.90;;;;;;5053122;28;20285;-74
2022/05/13 03:37:16;;;;;;;3.20;2.90;;;14.40;99.90;;;;;;5070186;28;20243;-74
2022/05/13 03:39:43;;;;;;;3.40;3.07;;;14.40;99.90;;;;;;5069773;28;20199;-74
2022/05/13 03:42:10;;;;;;;3.13;2.93;;;14.50;99.90;;;;;;5060688;28;20216;-74
2022/05/13 03:44:37;;;;;;;3.57;3.27;;;14.50;99.90;;;;;;5049821;28;20665;-74
2022/05/13 03:47:04;;;;;;;4.57;3.70;;;14.10;99.90;;;;;;5049284;28;20624;-74
2022/05/13 03:49:31;;;;;;;8.30;3.60;;;13.70;99.90;;;;;;5049921;28;20211;-74
2022/05/13 03:52:00;;;;;;;3.83;3.57;;;13.40;99.90;;;;;;5049420;28;20208;-74
2022/05/13 03:54:26;;;;;;;3.87;3.57;;;13.20;99.90;;;;;;5049767;28;20204;-74
2022/05/13 03:56:53;;;;;;;3.77;3.47;;;13.30;99.90;;;;;;5049253;28;20232;-74
2022/05/13 03:59:20;;;;;;;4.17;3.30;;;13.50;99.90;;;;;;5048723;28;20219;-74
2022/05/13 04:01:46;;;;;;;3.57;3.27;;;13.60;99.90;;;;;;5036739;28;20730;-74
2022/05/13 04:04:14;;;;;;;4.10;3.50;;;13.70;99.90;;;;;;5029440;28;20266;-74
2022/05/13 04:09:26;;;;;;;5.17;3.37;;;13.80;99.90;;;;;;5029417;28;20223;-74
2022/05/13 04:17:18;;;;;;;3.90;3.40;;;13.70;99.90;;;;;;5048653;28;20254;-74
2022/05/13 04:19:45;;;;;;;3.40;3.20;;;13.40;99.90;;;;;;5049791;28;20246;-74
2022/05/13 04:22:13;;;;;;;3.87;3.60;;;13.30;99.90;;;;;;5049083;28;20227;-73
2022/05/13 04:24:41;;;;;;;6.30;3.70;;;13.30;99.90;;;;;;5048625;28;20319;-74
2022/05/13 04:27:07;;;;;;;4.33;4.00;;;13.40;99.90;;;;;;5048958;28;20381;-74
2022/05/13 04:29:36;;;;;;;3.93;3.53;;;13.60;99.90;;;;;;5049405;28;20204;-74
2022/05/13 04:32:03;;;;;;;3.80;3.50;;;13.70;99.90;;;;;;5048863;28;20208;-74
2022/05/13 04:34:29;;;;;;;3.83;3.40;;;13.80;99.90;;;;;;5049048;28;20239;-74
2022/05/13 04:36:56;;;;;;;4.10;3.80;;;13.80;99.90;;;;;;5029037;28;20228;-75
2022/05/13 04:39:23;;;;;;;3.60;3.30;;;13.70;99.90;;;;;;5028763;28;20212;-74
2022/05/13 04:44:35;;;;;;;3.70;3.50;;;13.90;99.90;;;;;;5048564;28;20215;-73
2022/05/13 04:47:01;;;;;;;9.60;3.97;;;13.90;99.90;;;;;;5048659;28;20220;-74
2022/05/13 04:49:28;;;;;;;4.23;3.83;;;14.00;99.90;;;;;;5048784;28;20212;-73
2022/05/13 04:51:55;;;;;;;4.57;3.47;;;13.90;99.90;;;;;;5040967;28;20210;-73
2022/05/13 04:54:22;;;;;;;4.17;3.77;;;13.90;99.90;;;;;;5028448;28;20216;-73
2022/05/13 04:56:48;;;;;;;4.17;3.70;;;14.00;99.90;;;;;;5028473;28;20711;-73
2022/05/13 04:59:16;;;;;;;3.73;3.43;;;14.00;99.90;;;;;;5035500;28;20208;-73
2022/05/13 05:01:43;;;;;;;4.60;4.20;;;13.80;99.90;;;;;;5048489;28;20200;-73
2022/05/13 05:04:10;;;;;;;4.37;3.63;;;13.70;99.90;;;;;;5048604;28;20212;-74
2022/05/13 05:06:37;;;;;;;5.10;4.70;;;13.70;99.90;;;;;;5048184;28;20311;-74
2022/05/13 05:09:03;;;;;;;4.50;4.20;;;13.60;99.90;;;;;;5047887;28;20236;-74
2022/05/13 05:11:30;;;;;;;4.63;4.23;;;13.60;99.90;;;;;;5047424;28;20208;-74
2022/05/13 05:13:57;;;;;;;4.40;3.97;;;13.50;99.90;;;;;;5048087;28;20631;-74
2022/05/13 05:16:25;;;;;;;4.57;4.10;;;13.60;99.90;;;;;;5048466;28;20265;-74
2022/05/13 05:18:52;;;;;;;4.13;3.83;;;13.80;99.90;;;;;;5047834;28;20236;-74
2022/05/13 05:21:19;;;;;;;4.10;3.80;;;13.80;99.90;;;;;;5043158;28;20319;-74
2022/05/13 05:23:48;;;;;;;4.57;3.87;;;13.70;99.90;;;;;;5040675;28;20247;-73
2022/05/13 05:26:15;;;;;;;4.50;4.10;;;13.60;99.90;;;;;;5047937;28;20214;-73
2022/05/13 05:28:42;;;;;;;5.93;4.40;;;13.70;99.90;;;;;;5047818;28;20204;-74
2022/05/13 05:31:11;;;;;;;4.00;3.63;;;13.80;99.90;;;;;;5047618;28;20885;-74
2022/05/13 05:33:40;;;;;;;4.10;3.80;;;14.00;99.90;;;;;;5047849;28;20258;-74
2022/05/13 05:36:07;;;;;;;5.63;3.77;;;14.20;99.90;;;;;;5047326;28;20916;-74
2022/05/13 05:38:34;;;;;;;4.73;4.23;;;14.40;99.90;;;;;;5047693;28;20226;-74
2022/05/13 05:41:04;;;;;;;3.90;3.60;;;14.60;99.90;;;;;;5047566;28;20238;-74
2022/05/13 05:43:31;;;;;;;9.93;4.40;;;14.80;99.90;;;;;;5047496;28;20212;-74
2022/05/13 05:45:59;;;;;;;4.20;3.70;;;14.90;99.90;;;;;;5047174;28;20253;-74
2022/05/13 05:48:26;;;;;;;4.30;4.00;;;15.00;99.90;;;;;;5047547;28;20204;-74
2022/05/13 05:50:59;;;;;;;4.57;4.17;;;15.00;99.90;;;;;;5047358;28;20690;-74
2022/05/13 05:59:01;;;;;;;4.23;3.93;;;15.00;99.90;;;;;;5047410;28;20234;-74
2022/05/13 06:01:28;;;;;;;4.53;4.17;;;14.90;99.90;;;;;;5047952;28;20514;-74
2022/05/13 06:03:55;;;;;;;4.63;4.10;;;14.90;99.90;;;;;;5047545;28;20212;-74
2022/05/13 06:06:23;;;;;;;6.33;3.80;;;14.90;99.90;;;;;;5047432;28;20216;-74
2022/05/13 06:08:54;;;;;;;4.10;3.80;;;15.10;99.90;;;;;;5047154;28;20228;-74
2022/05/13 06:11:23;;;;;;;4.13;3.83;;;15.20;99.90;;;;;;5047638;28;20199;-74
2022/05/13 06:13:53;;;;;;;4.67;4.17;;;15.20;99.90;;;;;;5047027;28;20629;-74
2022/05/13 06:16:20;;;;;;;4.67;3.60;;;15.30;99.90;;;;;;5047379;28;20315;-74
2022/05/13 06:18:47;;;;;;;4.30;3.53;;;15.30;99.90;;;;;;5032155;28;20238;-74
2022/05/13 06:21:14;;;;;;;4.03;3.63;;;15.40;99.90;;;;;;5027322;28;20291;-74
2022/05/13 06:23:42;;;;;;;4.07;3.67;;;15.40;99.90;;;;;;5042336;28;20212;-74
2022/05/13 06:26:10;;;;;;;4.93;4.13;;;15.50;99.90;;;;;;5051334;28;20216;-74
2022/05/13 06:28:37;;;;;;;7.40;4.10;;;15.50;99.90;;;;;;5051451;28;20211;-74
2022/05/13 06:31:07;;;;;;;4.73;4.23;;;15.50;99.90;;;;;;5050940;28;20211;-74
2022/05/13 06:33:34;;;;;;;4.50;4.10;;;15.50;99.90;;;;;;5051288;28;20299;-74
2022/05/13 06:36:01;;;;;;;4.50;4.03;;;15.50;99.90;;;;;;5051185;28;20234;-74
2022/05/13 06:38:28;;;;;;;4.73;4.23;;;15.60;99.90;;;;;;5051174;28;20216;-74
2022/05/13 06:40:56;;;;;;;5.07;4.57;;;15.70;99.90;;;;;;5050939;28;20204;-74
2022/05/13 06:43:23;;;;;;;5.37;4.87;;;15.80;99.90;;;;;;5050859;28;20212;-74
2022/05/13 06:45:50;;;;;;;5.03;4.40;;;15.90;99.90;;;;;;5050917;28;20200;-74
2022/05/13 06:48:17;;;;;;;4.87;4.47;;;16.00;99.90;;;;;;5050832;28;20608;-74
2022/05/13 06:50:46;;;;;;;4.43;4.03;;;16.10;99.90;;;;;;5050563;28;20650;-74
2022/05/13 06:53:13;;;;;;;6.10;4.60;;;16.20;99.90;;;;;;5050551;28;20277;-74
2022/05/13 06:55:40;;;;;;;9.07;4.90;;;16.20;99.90;;;;;;5050726;28;20588;-74
2022/05/13 06:58:08;;;;;;;5.90;4.23;;;16.20;99.90;;;;;;5050633;28;20236;-74
2022/05/13 07:00:35;;;;;;;6.17;5.30;;;16.20;99.90;;;;;;5050436;28;20208;-74
2022/05/13 07:03:02;;;;;;;5.43;4.93;;;16.30;99.90;;;;;;5050076;28;20204;-75
2022/05/13 07:05:29;;;;;;;7.53;4.90;;;16.30;99.90;;;;;;5050310;28;20215;-74
2022/05/13 07:07:56;;;;;;;5.23;4.73;;;16.30;99.90;;;;;;5049875;28;20240;-74
2022/05/13 07:10:23;;;;;;;7.60;5.17;;;16.40;99.90;;;;;;5050097;28;20274;-74
2022/05/13 07:12:50;;;;;;;6.43;4.83;;;16.40;99.90;;;;;;5050449;28;20223;-75
2022/05/13 07:15:21;;;;;;;6.50;5.87;;;16.50;99.90;;;;;;5049340;28;20720;-74
2022/05/13 07:17:48;;;;;;;6.90;5.47;;;16.50;99.90;;;;;;5050176;28;20240;-74
2022/05/13 07:20:16;;;;;;;6.10;5.50;;;16.40;99.90;;;;;;5049959;28;20663;-74
2022/05/13 07:22:43;;;;;;;6.97;6.27;;;16.40;99.90;;;;;;5046473;28;20239;-74
2022/05/13 07:25:10;;;;;;;6.87;5.67;;;16.20;99.90;;;;;;5029769;28;20204;-74
2022/05/13 07:27:37;;;;;;;6.43;5.83;;;16.30;99.90;;;;;;5030058;28;20216;-74
2022/05/13 07:30:05;;;;;;;5.60;5.20;;;16.30;99.90;;;;;;5029885;28;20208;-74
2022/05/13 07:32:33;;;;;;;7.20;5.50;;;16.30;99.90;;;;;;5030047;28;20220;-74
2022/05/13 07:35:00;;;;;;;5.53;5.00;;;16.30;99.90;;;;;;5029019;28;20209;-74
2022/05/13 07:37:26;;;;;;;6.10;4.80;;;16.30;99.90;;;;;;5030276;28;20236;-74
2022/05/13 07:42:37;;;;;;;6.40;5.37;;;16.30;99.90;;;;;;5044758;28;20207;-74
2022/05/13 07:45:05;;;;;;;5.93;5.43;;;16.40;99.90;;;;;;5034756;28;20303;-74
2022/05/13 07:47:33;;;;;;;6.60;6.00;;;16.40;99.90;;;;;;5029733;28;20200;-74
2022/05/13 07:50:00;;;;;;;6.87;6.17;;;16.40;99.90;;;;;;5029421;28;20201;-74
2022/05/13 07:52:27;;;;;;;7.43;6.07;;;16.30;99.90;;;;;;5029741;28;20267;-74
2022/05/13 07:54:53;;;;;;;6.80;6.20;;;16.30;99.90;;;;;;5029419;28;20570;-74
2022/05/13 07:57:20;;;;;;;6.77;6.27;;;16.20;99.90;;;;;;5029611;28;20279;-74
2022/05/13 08:02:32;;;;;;;6.43;5.83;;;16.00;99.90;;;;;;5048832;28;20794;-74
2022/05/13 08:04:59;;;;;;;7.47;6.27;;;16.00;99.90;;;;;;5049439;28;20208;-74
2022/05/13 08:07:25;;;;;;;7.43;6.73;;;16.00;99.90;;;;;;5049451;28;20285;-74
2022/05/13 08:09:52;;;;;;;7.30;6.50;;;15.90;99.90;;;;;;5045534;28;20259;-74
2022/05/13 08:12:19;;;;;;;6.77;6.03;;;15.90;99.90;;;;;;5029577;28;20288;-74
2022/05/13 08:14:45;;;;;;;7.50;6.53;;;15.90;99.90;;;;;;5029134;28;20975;-74
2022/05/13 08:17:12;;;;;;;10.13;6.50;;;15.90;99.90;;;;;;5028773;28;20240;-74
2022/05/13 08:19:40;;;;;;;8.27;6.07;;;15.90;99.90;;;;;;5029535;28;20209;-74
2022/05/13 08:22:07;;;;;;;6.73;6.10;;;15.90;99.90;;;;;;5029284;28;20267;-74
2022/05/13 08:24:33;;;;;;;6.93;5.97;;;15.90;99.90;;;;;;5037250;28;20351;-74
2022/05/13 08:27:00;;;;;;;6.60;5.93;;;15.80;99.90;;;;;;5029102;28;20210;-74
2022/05/13 08:29:27;;;;;;;8.27;6.60;;;15.80;99.90;;;;;;5029317;28;20209;-74
2022/05/13 08:31:54;;;;;;;6.83;6.23;;;15.80;99.90;;;;;;5029208;28;20209;-74
2022/05/13 08:34:20;;;;;;;6.47;5.97;;;15.90;99.90;;;;;;5029142;28;20578;-74
2022/05/13 08:36:50;;;;;;;6.67;5.93;;;15.90;99.90;;;;;;5028928;28;20738;-74
2022/05/13 08:39:17;;;;;;;7.23;6.43;;;15.90;99.90;;;;;;5046807;28;20223;-74
2022/05/13 08:41:58;;;;;;;6.77;6.27;;;15.80;99.90;;;;;;5048712;28;20208;-74
2022/05/13 08:44:26;;;;;;;6.93;6.30;;;15.80;99.90;;;;;;5039652;28;20259;-74
2022/05/13 08:46:57;;;;;;;6.70;5.77;;;15.80;99.90;;;;;;5028585;28;20215;-74
2022/05/13 08:49:30;;;;;;;7.20;5.47;;;15.80;99.90;;;;;;5028749;28;20197;-74
2022/05/13 08:55:00;;;;;;;5.80;5.30;;;16.00;99.90;;;;;;5028299;28;20274;-74
2022/05/13 08:57:29;;;;;;;6.33;5.80;;;16.10;99.90;;;;;;5028593;28;20240;-74
2022/05/13 09:00:01;;;;;;;6.90;5.80;;;16.20;99.90;;;;;;5027791;28;20663;-74
2022/05/13 09:02:32;;;;;;;6.47;5.90;;;16.20;99.90;;;;;;5028403;28;20201;-74
2022/05/13 09:05:03;;;;;;;6.57;5.70;;;16.10;99.90;;;;;;5028176;28;20197;-74
2022/05/13 09:07:31;;;;;;;11.33;5.80;;;16.30;99.90;;;;;;5042858;28;20228;-74
2022/05/13 09:10:00;;;;;;;5.73;5.13;;;16.30;99.90;;;;;;5047900;28;20277;-74
2022/05/13 09:12:32;;;;;;;6.80;5.10;;;16.50;99.90;;;;;;5048284;28;20200;-74
2022/05/13 09:15:07;;;;;;;6.17;4.20;;;16.50;99.90;;;;;;5034291;28;20749;-74
2022/05/13 09:17:37;;;;;;;7.03;4.63;;;16.70;99.90;;;;;;5027729;28;20682;-74
2022/05/13 09:20:07;;;;;;;5.70;3.97;;;16.80;99.90;;;;;;5032518;28;20204;-74
2022/05/13 09:22:41;;;;;;;4.77;3.40;;;16.80;99.90;;;;;;5047961;28;20200;-74
2022/05/13 09:25:14;;;;;;;5.77;4.23;;;17.10;99.90;;;;;;5047604;28;20224;-74
2022/05/13 09:27:46;;;;;;;4.53;3.07;;;17.20;99.90;;;;;;5047732;28;20675;-74
2022/05/13 09:30:17;;;;;;;6.80;3.30;;;17.40;99.90;;;;;;5047612;28;20251;-74
2022/05/13 09:32:44;;;;;;;4.07;3.03;;;17.50;99.60;;;;;;5047791;28;20266;-74
2022/05/13 09:35:18;;;;;;;4.57;3.37;;;17.60;99.90;;;;;;5047327;28;20654;-74
2022/05/13 09:37:46;;;;;;;3.43;2.87;;;17.70;99.30;;;;;;5047843;28;20216;-74
2022/05/13 09:40:22;;;;;;;6.07;3.10;;;17.80;99.20;;;;;;5047461;28;20433;-74
2022/05/13 09:42:50;;;;;;;6.13;3.17;;;17.80;99.50;;;;;;5047368;28;20666;-74
2022/05/13 09:45:21;;;;;;;5.77;3.20;;;17.80;99.40;;;;;;5047609;28;20216;-74
2022/05/13 09:48:01;;;;;;;4.57;3.50;;;17.80;99.70;;;;;;5047759;28;20192;-74
2022/05/13 09:50:31;;;;;;;9.03;3.07;;;17.60;99.10;;;;;;5048126;28;20196;-74
2022/05/13 09:53:05;;;;;;;4.80;3.43;;;17.60;99.50;;;;;;5047226;28;20200;-74
2022/05/13 09:55:37;;;;;;;5.30;3.40;;;17.50;99.70;;;;;;5047687;28;20192;-74
2022/05/13 09:58:15;;;;;;;4.37;3.40;;;17.50;99.90;;;;;;5046756;28;20235;-74
2022/05/13 10:00:43;;;;;;;4.60;3.10;;;17.50;99.80;;;;;;5047360;28;20196;-74
2022/05/13 10:03:18;;;;;;;5.37;3.43;;;17.70;99.40;;;;;;5037185;28;20454;-74
2022/05/13 10:05:50;;;;;;;13.53;3.77;;;17.70;99.10;;;;;;5027643;28;20203;-74
2022/05/13 10:08:26;;;;;;;6.93;3.60;;;18.00;99.70;;;;;;5027149;28;20290;-74
2022/05/13 10:14:00;;;;;;;6.40;2.90;;;17.80;99.00;;;;;;5027345;28;20212;-74
2022/05/13 10:16:34;;;;;;;3.33;2.80;;;17.70;99.70;;;;;;5033275;28;20212;-74
2022/05/13 10:19:07;;;;;;;4.03;2.43;;;17.70;99.60;;;;;;5047121;28;20279;-74
2022/05/13 10:21:39;;;;;;;4.50;3.00;;;17.60;99.60;;;;;;5047515;28;20213;-75
2022/05/13 10:24:22;;;;;;;4.70;2.90;;;17.50;99.50;;;;;;5046807;28;20208;-74
2022/05/13 10:26:49;;;;;;;3.70;3.00;;;17.50;99.90;;;;;;5047490;28;20200;-74
2022/05/13 10:29:22;;;;;;;5.40;2.93;;;17.40;99.70;;;;;;5046988;28;20208;-74
2022/05/13 10:31:50;;;;;;;4.23;2.70;;;17.30;99.90;;;;;;5047097;28;20250;-74
2022/05/13 10:34:25;;;;;;;4.50;2.67;;;17.40;99.90;;;;;;5047145;28;20266;-74
2022/05/13 10:36:59;;;;;;;2.90;2.70;;;17.50;99.90;;;;;;5046947;28;20726;-74
2022/05/13 10:39:38;;;;;;;3.00;2.53;;;17.60;99.90;;;;;;5046697;28;20195;-74
2022/05/13 10:42:10;;;;;;;3.07;2.03;;;17.70;99.80;;;;;;5046841;28;20216;-74
2022/05/13 10:44:45;;;;;;;4.37;2.30;;;17.80;98.60;;;;;;5046795;28;20878;-74
2022/05/13 10:47:17;;;;;;;5.90;2.33;;;17.90;98.00;;;;;;5046731;28;20641;-74
2022/05/13 10:49:46;;;;;;;4.73;2.07;;;17.80;98.00;;;;;;5047329;28;20219;-74
2022/05/13 10:52:23;;;;;;;5.70;2.10;;;18.10;98.60;;;;;;5046705;28;20224;-74
2022/05/13 10:54:54;;;;;;;2.60;1.97;;;18.30;97.40;;;;;;5046254;28;20622;-74
2022/05/13 10:57:33;;;;;;;5.50;2.20;;;18.50;95.50;;;;;;5047082;28;20216;-74
2022/05/13 11:00:11;;;;;;;5.67;1.87;;;18.30;94.30;;;;;;5045966;28;20259;-74
2022/05/13 11:03:24;;;;;;;2.80;1.60;;;18.30;94.50;;;;;;5046865;28;20342;-74
2022/05/13 11:06:04;;;;;;;4.37;2.17;;;18.50;94.90;;;;;;4984943;28;20309;-74
2022/05/13 11:08:45;;;;;;;3.80;2.00;;;18.60;94.80;;;;;;4985947;28;20282;-74
2022/05/13 11:11:27;;;;;;;5.17;1.70;;;18.60;94.80;;;;;;5033166;28;20212;-74
2022/05/13 11:14:04;;;;;;;4.30;1.73;;;19.00;94.10;;;;;;5035053;28;20235;-74
2022/05/13 11:16:42;;;;;;;5.43;1.90;;;19.20;93.00;;;;;;5030647;28;20201;-74
2022/05/13 11:19:18;;;;;;;3.27;1.90;;;18.90;93.00;;;;;;5029903;28;20244;-74
2022/05/13 11:21:54;;;;;;;2.10;1.87;;;18.70;93.40;;;;;;5030608;28;20201;-74
2022/05/13 11:27:38;;;;;;;3.40;2.03;;;18.50;93.70;;;;;;5043836;28;20271;-74
2022/05/13 11:30:09;;;;;;;4.07;2.10;;;18.50;93.80;;;;;;5050023;28;20200;-74
2022/05/13 11:32:43;;;;;;;3.43;2.13;;;18.50;93.70;;;;;;5050170;28;20196;-74
2022/05/13 11:35:34;;;;;;;3.03;2.03;;;18.30;93.50;;;;;;5049959;28;20192;-74
2022/05/13 11:38:07;;;;;;;4.53;2.30;;;18.30;93.80;;;;;;5040634;28;20726;-74
2022/05/13 11:40:41;;;;;;;6.17;2.57;;;18.40;93.70;;;;;;5049915;28;20196;-74
2022/05/13 11:43:31;;;;;;;10.80;2.57;;;18.60;94.00;;;;;;5049563;28;20550;-74
2022/05/13 11:46:28;;;;;;;2.90;2.60;;;18.60;93.40;;;;;;5030147;28;20193;-74
2022/05/13 11:48:59;;;;;;;3.03;2.60;;;18.60;93.90;;;;;;5029700;28;20197;-74
2022/05/13 11:51:28;;;;;;;3.50;2.00;;;18.50;93.80;;;;;;5030091;28;20193;-74
2022/05/13 11:54:16;;;;;;;5.83;2.50;;;18.50;93.70;;;;;;5034010;28;20209;-74
2022/05/13 11:56:46;;;;;;;2.40;2.20;;;18.50;92.70;;;;;;5049583;28;20261;-74
2022/05/13 11:59:46;;;;;;;4.33;2.37;;;18.50;93.10;;;;;;5049842;28;20323;-74
2022/05/13 12:02:26;;;;;;;2.27;1.80;;;18.40;93.20;;;;;;5033630;28;20197;-75
2022/05/13 12:05:08;;;;;;;3.73;2.00;;;18.50;93.70;;;;;;5029811;28;20228;-74
2022/05/13 12:07:40;;;;;;;3.37;2.10;;;18.50;93.70;;;;;;5029604;28;20225;-74
2022/05/13 12:10:11;;;;;;;4.37;2.00;;;18.60;93.70;;;;;;5044095;28;20193;-74
2022/05/13 12:12:52;;;;;;;3.93;1.77;;;18.80;93.10;;;;;;5049843;28;20200;-74
2022/05/13 12:15:43;;;;;;;2.53;2.00;;;18.70;92.90;;;;;;5049037;28;20860;-74
2022/05/13 12:18:24;;;;;;;4.17;2.20;;;18.60;92.90;;;;;;5048876;28;20243;-74
2022/05/13 12:20:56;;;;;;;2.73;2.00;;;18.50;93.20;;;;;;5048918;28;20326;-74
2022/05/13 12:23:28;;;;;;;5.20;1.83;;;18.30;93.40;;;;;;5039436;28;20201;-74
2022/05/13 12:26:01;;;;;;;4.70;2.07;;;18.20;93.50;;;;;;5029168;28;20201;-74
2022/05/13 12:28:41;;;;;;;2.83;2.10;;;18.20;93.40;;;;;;5029094;28;20193;-74
2022/05/13 12:31:32;;;;;;;3.23;2.17;;;18.20;93.50;;;;;;5028939;28;20196;-74
2022/05/13 12:39:46;;;;;;;2.27;1.87;;;17.90;93.20;;;;;;5028581;28;20300;-74
2022/05/13 12:42:14;;;;;;;2.63;1.70;;;17.90;93.40;;;;;;5037993;28;20200;-74
2022/05/13 12:44:56;;;;;;;4.93;2.23;;;18.00;93.70;;;;;;5037553;28;20215;-74
2022/05/13 12:47:28;;;;;;;4.10;2.00;;;18.00;93.80;;;;;;5028657;28;20644;-74
2022/05/13 12:50:01;;;;;;;5.73;1.90;;;18.00;93.60;;;;;;5028911;28;20197;-74
2022/05/13 12:52:38;;;;;;;2.83;2.10;;;17.80;93.70;;;;;;5042885;28;20200;-74
2022/05/13 12:55:10;;;;;;;3.13;1.90;;;17.70;93.70;;;;;;5048114;28;20258;-74
2022/05/13 12:57:41;;;;;;;3.90;2.30;;;17.60;93.90;;;;;;5048169;28;20785;-74
2022/05/13 13:00:12;;;;;;;4.47;2.20;;;17.50;94.10;;;;;;5048549;28;20258;-74
2022/05/13 13:02:43;;;;;;;3.60;1.87;;;17.30;94.40;;;;;;5048215;28;20201;-74
2022/05/13 13:05:16;;;;;;;3.03;2.07;;;17.30;94.80;;;;;;5048477;28;20279;-74
2022/05/13 13:07:43;;;;;;;2.50;1.90;;;17.30;94.90;;;;;;5048588;28;20235;-74
2022/05/13 13:10:10;;;;;;;4.60;1.90;;;17.30;94.90;;;;;;5048213;28;20204;-74
2022/05/13 13:12:41;;;;;;;4.07;2.00;;;17.30;95.20;;;;;;5047958;28;20578;-74
2022/05/13 13:15:13;;;;;;;3.40;2.00;;;17.30;95.40;;;;;;5048236;28;20291;-74
2022/05/13 13:17:46;;;;;;;2.77;2.13;;;17.40;95.60;;;;;;5044731;28;20229;-75
2022/05/13 13:20:16;;;;;;;5.43;2.60;;;17.60;95.70;;;;;;5028036;28;20216;-74
2022/05/13 13:22:47;;;;;;;3.97;2.17;;;17.70;95.60;;;;;;5028389;28;20197;-74
2022/05/13 13:25:25;;;;;;;5.43;2.23;;;17.70;95.60;;;;;;5027987;28;20197;-74
2022/05/13 13:27:54;;;;;;;3.03;2.00;;;17.90;95.80;;;;;;5028280;28;20197;-74
2022/05/13 13:30:23;;;;;;;7.47;2.00;;;17.90;95.80;;;;;;5028159;28;20240;-74
2022/05/13 13:32:53;;;;;;;3.97;2.17;;;17.80;95.80;;;;;;5027015;28;20217;-75
2022/05/13 13:35:29;;;;;;;6.23;2.37;;;18.20;95.30;;;;;;5027606;28;20639;-75
2022/05/13 13:37:57;;;;;;;4.13;2.20;;;18.70;95.10;;;;;;5027410;28;20203;-75
2022/05/13 13:40:30;;;;;;;6.00;2.20;;;19.10;94.30;;;;;;5027665;28;20235;-74
2022/05/13 13:43:08;;;;;;;4.67;2.33;;;18.90;93.90;;;;;;5032711;28;20203;-72